sensor_id;sensor_type;location;lat;lon;timestamp;temperature;humidity
7516;DHT22;3799;47.184;8.538;2023-07-20T00:00:52;23.30;57.40
7516;DHT22;3799;47.184;8.538;2023-07-20T00:03:20;23.30;57.60
7516;DHT22;3799;47.184;8.538;2023-07-20T00:05:52;23.30;57.80
7516;DHT22;3799;47.184;8.538;2023-07-20T00:08:25;23.30;57.70
7516;DHT22;3799;47.184;8.538;2023-07-20T00:10:53;23.20;57.30
7516;DHT22;3799;47.184;8.538;2023-07-20T00:13:20;23.20;57.40
7516;DHT22;3799;47.184;8.538;2023-07-20T00:15:48;23.20;57.80
7516;DHT22;3799;47.184;8.538;2023-07-20T00:18:15;23.20;58.30
7516;DHT22;3799;47.184;8.538;2023-07-20T00:20:47;23.20;58.40
7516;DHT22;3799;47.184;8.538;2023-07-20T00:23:19;23.20;58.60
7516;DHT22;3799;47.184;8.538;2023-07-20T00:26:02;23.20;58.40
7516;DHT22;3799;47.184;8.538;2023-07-20T00:28:29;23.10;58.40
7516;DHT22;3799;47.184;8.538;2023-07-20T00:30:58;23.10;58.30
7516;DHT22;3799;47.184;8.538;2023-07-20T00:33:26;23.10;58.00
7516;DHT22;3799;47.184;8.538;2023-07-20T00:35:53;23.00;58.00
7516;DHT22;3799;47.184;8.538;2023-07-20T00:38:21;23.00;57.70
7516;DHT22;3799;47.184;8.538;2023-07-20T00:40:48;23.00;57.40
7516;DHT22;3799;47.184;8.538;2023-07-20T00:43:16;22.90;57.50
7516;DHT22;3799;47.184;8.538;2023-07-20T00:45:44;22.90;57.40
7516;DHT22;3799;47.184;8.538;2023-07-20T00:48:13;22.80;57.60
7516;DHT22;3799;47.184;8.538;2023-07-20T00:50:42;22.70;57.60
7516;DHT22;3799;47.184;8.538;2023-07-20T00:53:10;22.70;57.70
7516;DHT22;3799;47.184;8.538;2023-07-20T00:55:37;22.70;57.50
7516;DHT22;3799;47.184;8.538;2023-07-20T00:58:04;22.70;57.50
7516;DHT22;3799;47.184;8.538;2023-07-20T01:00:31;22.60;57.50
7516;DHT22;3799;47.184;8.538;2023-07-20T01:02:59;22.60;57.70
7516;DHT22;3799;47.184;8.538;2023-07-20T01:05:38;22.60;57.80
7516;DHT22;3799;47.184;8.538;2023-07-20T01:11:21;22.60;58.10
7516;DHT22;3799;47.184;8.538;2023-07-20T01:13:50;22.60;58.40
7516;DHT22;3799;47.184;8.538;2023-07-20T01:16:18;22.60;58.60
7516;DHT22;3799;47.184;8.538;2023-07-20T01:18:45;22.60;58.70
7516;DHT22;3799;47.184;8.538;2023-07-20T01:21:22;22.60;59.30
7516;DHT22;3799;47.184;8.538;2023-07-20T01:24:16;22.60;59.50
7516;DHT22;3799;47.184;8.538;2023-07-20T01:26:59;22.60;59.80
7516;DHT22;3799;47.184;8.538;2023-07-20T01:32:28;22.40;58.50
7516;DHT22;3799;47.184;8.538;2023-07-20T01:34:56;22.50;58.30
7516;DHT22;3799;47.184;8.538;2023-07-20T01:37:25;22.40;58.30
7516;DHT22;3799;47.184;8.538;2023-07-20T01:39:56;22.40;58.70
7516;DHT22;3799;47.184;8.538;2023-07-20T01:42:24;22.40;59.20
7516;DHT22;3799;47.184;8.538;2023-07-20T01:44:52;22.30;59.70
7516;DHT22;3799;47.184;8.538;2023-07-20T01:47:21;22.30;59.90
7516;DHT22;3799;47.184;8.538;2023-07-20T01:49:49;22.30;60.60
7516;DHT22;3799;47.184;8.538;2023-07-20T01:52:16;22.30;60.60
7516;DHT22;3799;47.184;8.538;2023-07-20T01:54:43;22.20;60.60
7516;DHT22;3799;47.184;8.538;2023-07-20T01:57:10;22.20;60.90
7516;DHT22;3799;47.184;8.538;2023-07-20T01:59:37;22.20;61.10
7516;DHT22;3799;47.184;8.538;2023-07-20T02:02:04;22.20;61.20
7516;DHT22;3799;47.184;8.538;2023-07-20T02:04:32;22.20;62.00
7516;DHT22;3799;47.184;8.538;2023-07-20T02:06:59;22.10;63.30
7516;DHT22;3799;47.184;8.538;2023-07-20T02:09:26;22.10;63.90
7516;DHT22;3799;47.184;8.538;2023-07-20T02:11:53;22.10;63.80
7516;DHT22;3799;47.184;8.538;2023-07-20T02:14:21;22.00;64.40
7516;DHT22;3799;47.184;8.538;2023-07-20T02:16:49;22.00;64.90
7516;DHT22;3799;47.184;8.538;2023-07-20T02:19:19;22.00;65.40
7516;DHT22;3799;47.184;8.538;2023-07-20T02:21:46;21.90;65.70
7516;DHT22;3799;47.184;8.538;2023-07-20T02:24:13;21.90;66.20
7516;DHT22;3799;47.184;8.538;2023-07-20T02:26:40;21.90;66.70
7516;DHT22;3799;47.184;8.538;2023-07-20T02:29:08;21.80;67.10
7516;DHT22;3799;47.184;8.538;2023-07-20T02:31:35;21.80;67.10
7516;DHT22;3799;47.184;8.538;2023-07-20T02:34:05;21.80;67.40
7516;DHT22;3799;47.184;8.538;2023-07-20T02:36:33;21.80;68.30
7516;DHT22;3799;47.184;8.538;2023-07-20T02:39:04;21.80;67.90
7516;DHT22;3799;47.184;8.538;2023-07-20T02:41:34;21.80;68.60
7516;DHT22;3799;47.184;8.538;2023-07-20T02:44:01;21.80;69.20
7516;DHT22;3799;47.184;8.538;2023-07-20T02:46:33;21.80;69.20
7516;DHT22;3799;47.184;8.538;2023-07-20T02:49:01;21.80;69.60
7516;DHT22;3799;47.184;8.538;2023-07-20T02:51:28;21.70;68.80
7516;DHT22;3799;47.184;8.538;2023-07-20T02:53:56;21.60;69.20
7516;DHT22;3799;47.184;8.538;2023-07-20T02:56:23;21.50;70.80
7516;DHT22;3799;47.184;8.538;2023-07-20T02:58:53;21.60;71.90
7516;DHT22;3799;47.184;8.538;2023-07-20T03:01:21;21.50;72.00
7516;DHT22;3799;47.184;8.538;2023-07-20T03:03:50;21.60;72.60
7516;DHT22;3799;47.184;8.538;2023-07-20T03:06:18;21.60;72.40
7516;DHT22;3799;47.184;8.538;2023-07-20T03:08:45;21.60;72.50
7516;DHT22;3799;47.184;8.538;2023-07-20T03:11:14;21.60;72.90
7516;DHT22;3799;47.184;8.538;2023-07-20T03:13:42;21.60;73.90
7516;DHT22;3799;47.184;8.538;2023-07-20T03:16:11;21.60;74.50
7516;DHT22;3799;47.184;8.538;2023-07-20T03:18:39;21.50;74.60
7516;DHT22;3799;47.184;8.538;2023-07-20T03:21:10;21.50;75.00
7516;DHT22;3799;47.184;8.538;2023-07-20T03:23:41;21.50;75.50
7516;DHT22;3799;47.184;8.538;2023-07-20T03:26:08;21.50;75.80
7516;DHT22;3799;47.184;8.538;2023-07-20T03:28:37;21.50;76.40
7516;DHT22;3799;47.184;8.538;2023-07-20T03:31:05;21.50;77.10
7516;DHT22;3799;47.184;8.538;2023-07-20T03:33:34;21.50;77.70
7516;DHT22;3799;47.184;8.538;2023-07-20T03:36:01;21.40;78.10
7516;DHT22;3799;47.184;8.538;2023-07-20T03:38:29;21.40;78.90
7516;DHT22;3799;47.184;8.538;2023-07-20T03:40:58;21.40;79.80
7516;DHT22;3799;47.184;8.538;2023-07-20T03:43:26;21.30;80.20
7516;DHT22;3799;47.184;8.538;2023-07-20T03:45:54;21.30;81.60
7516;DHT22;3799;47.184;8.538;2023-07-20T03:48:22;21.20;83.10
7516;DHT22;3799;47.184;8.538;2023-07-20T03:50:51;21.20;84.60
7516;DHT22;3799;47.184;8.538;2023-07-20T03:53:19;21.20;85.70
7516;DHT22;3799;47.184;8.538;2023-07-20T03:55:49;21.20;86.30
7516;DHT22;3799;47.184;8.538;2023-07-20T03:58:18;21.20;86.10
7516;DHT22;3799;47.184;8.538;2023-07-20T04:00:47;21.10;87.30
7516;DHT22;3799;47.184;8.538;2023-07-20T04:03:14;21.10;89.00
7516;DHT22;3799;47.184;8.538;2023-07-20T04:05:43;21.10;90.20
7516;DHT22;3799;47.184;8.538;2023-07-20T04:08:10;21.10;90.20
7516;DHT22;3799;47.184;8.538;2023-07-20T04:10:38;21.00;90.50
7516;DHT22;3799;47.184;8.538;2023-07-20T04:13:06;21.00;91.30
7516;DHT22;3799;47.184;8.538;2023-07-20T04:15:34;21.00;92.00
7516;DHT22;3799;47.184;8.538;2023-07-20T04:18:01;21.10;92.10
7516;DHT22;3799;47.184;8.538;2023-07-20T04:20:29;21.00;92.60
7516;DHT22;3799;47.184;8.538;2023-07-20T04:22:56;21.10;93.40
7516;DHT22;3799;47.184;8.538;2023-07-20T04:25:24;21.10;93.90
7516;DHT22;3799;47.184;8.538;2023-07-20T04:27:51;21.10;94.60
7516;DHT22;3799;47.184;8.538;2023-07-20T04:30:27;21.20;95.10
7516;DHT22;3799;47.184;8.538;2023-07-20T04:32:54;21.20;95.00
7516;DHT22;3799;47.184;8.538;2023-07-20T04:35:53;21.20;94.80
7516;DHT22;3799;47.184;8.538;2023-07-20T04:38:21;21.20;94.80
7516;DHT22;3799;47.184;8.538;2023-07-20T04:40:49;21.20;94.90
7516;DHT22;3799;47.184;8.538;2023-07-20T04:43:17;21.00;94.60
7516;DHT22;3799;47.184;8.538;2023-07-20T04:45:45;21.20;94.80
7516;DHT22;3799;47.184;8.538;2023-07-20T04:48:14;21.20;94.60
7516;DHT22;3799;47.184;8.538;2023-07-20T04:50:50;21.20;95.10
7516;DHT22;3799;47.184;8.538;2023-07-20T04:53:18;21.30;95.70
7516;DHT22;3799;47.184;8.538;2023-07-20T04:55:49;21.40;95.90
7516;DHT22;3799;47.184;8.538;2023-07-20T04:58:22;21.40;96.10
7516;DHT22;3799;47.184;8.538;2023-07-20T05:00:49;21.40;95.90
7516;DHT22;3799;47.184;8.538;2023-07-20T05:03:17;21.30;95.20
7516;DHT22;3799;47.184;8.538;2023-07-20T05:05:46;21.10;95.30
7516;DHT22;3799;47.184;8.538;2023-07-20T05:08:16;21.20;95.70
7516;DHT22;3799;47.184;8.538;2023-07-20T05:10:44;21.20;95.90
7516;DHT22;3799;47.184;8.538;2023-07-20T05:13:11;21.30;96.10
7516;DHT22;3799;47.184;8.538;2023-07-20T05:15:38;21.30;96.30
7516;DHT22;3799;47.184;8.538;2023-07-20T05:18:11;21.30;96.30
7516;DHT22;3799;47.184;8.538;2023-07-20T05:20:39;21.30;95.90
7516;DHT22;3799;47.184;8.538;2023-07-20T05:23:07;21.30;96.50
7516;DHT22;3799;47.184;8.538;2023-07-20T05:25:34;21.30;96.80
7516;DHT22;3799;47.184;8.538;2023-07-20T05:28:06;21.40;97.10
7516;DHT22;3799;47.184;8.538;2023-07-20T05:30:34;21.40;97.30
7516;DHT22;3799;47.184;8.538;2023-07-20T05:33:03;21.50;97.30
7516;DHT22;3799;47.184;8.538;2023-07-20T05:35:31;21.60;97.30
7516;DHT22;3799;47.184;8.538;2023-07-20T05:38:06;21.60;97.30
7516;DHT22;3799;47.184;8.538;2023-07-20T05:40:45;21.60;97.20
7516;DHT22;3799;47.184;8.538;2023-07-20T05:43:12;21.80;98.00
7516;DHT22;3799;47.184;8.538;2023-07-20T05:45:43;22.00;98.20
7516;DHT22;3799;47.184;8.538;2023-07-20T05:48:10;22.20;97.90
7516;DHT22;3799;47.184;8.538;2023-07-20T05:50:42;22.50;97.80
7516;DHT22;3799;47.184;8.538;2023-07-20T05:53:11;22.60;97.30
7516;DHT22;3799;47.184;8.538;2023-07-20T05:55:38;22.80;96.50
7516;DHT22;3799;47.184;8.538;2023-07-20T05:58:07;22.90;95.90
7516;DHT22;3799;47.184;8.538;2023-07-20T06:00:34;23.00;95.60
7516;DHT22;3799;47.184;8.538;2023-07-20T06:03:04;23.10;95.10
7516;DHT22;3799;47.184;8.538;2023-07-20T06:05:31;23.20;94.80
7516;DHT22;3799;47.184;8.538;2023-07-20T06:07:59;23.30;94.50
7516;DHT22;3799;47.184;8.538;2023-07-20T06:10:27;23.40;94.20
7516;DHT22;3799;47.184;8.538;2023-07-20T06:12:58;23.40;93.40
7516;DHT22;3799;47.184;8.538;2023-07-20T06:15:31;23.40;93.20
7516;DHT22;3799;47.184;8.538;2023-07-20T06:17:59;23.30;93.00
7516;DHT22;3799;47.184;8.538;2023-07-20T06:20:28;23.20;92.50
7516;DHT22;3799;47.184;8.538;2023-07-20T06:22:55;23.20;92.80
7516;DHT22;3799;47.184;8.538;2023-07-20T06:25:22;23.20;92.40
7516;DHT22;3799;47.184;8.538;2023-07-20T06:27:54;23.30;92.40
7516;DHT22;3799;47.184;8.538;2023-07-20T06:30:34;23.30;92.30
7516;DHT22;3799;47.184;8.538;2023-07-20T06:33:01;23.50;92.10
7516;DHT22;3799;47.184;8.538;2023-07-20T06:35:29;23.50;91.80
7516;DHT22;3799;47.184;8.538;2023-07-20T06:37:56;23.60;91.60
7516;DHT22;3799;47.184;8.538;2023-07-20T06:40:46;23.60;91.50
7516;DHT22;3799;47.184;8.538;2023-07-20T06:43:13;23.70;91.10
7516;DHT22;3799;47.184;8.538;2023-07-20T06:45:44;23.70;90.20
7516;DHT22;3799;47.184;8.538;2023-07-20T06:48:11;23.70;87.90
7516;DHT22;3799;47.184;8.538;2023-07-20T06:50:39;23.60;87.10
7516;DHT22;3799;47.184;8.538;2023-07-20T06:53:09;23.60;86.90
7516;DHT22;3799;47.184;8.538;2023-07-20T06:55:36;23.70;86.70
7516;DHT22;3799;47.184;8.538;2023-07-20T06:58:09;23.80;85.00
7516;DHT22;3799;47.184;8.538;2023-07-20T07:00:36;23.80;84.10
7516;DHT22;3799;47.184;8.538;2023-07-20T07:03:10;23.80;84.80
7516;DHT22;3799;47.184;8.538;2023-07-20T07:05:38;23.80;83.60
7516;DHT22;3799;47.184;8.538;2023-07-20T07:08:06;23.90;83.30
7516;DHT22;3799;47.184;8.538;2023-07-20T07:10:35;24.00;83.00
7516;DHT22;3799;47.184;8.538;2023-07-20T07:13:09;24.00;79.60
7516;DHT22;3799;47.184;8.538;2023-07-20T07:15:36;24.00;78.20
7516;DHT22;3799;47.184;8.538;2023-07-20T07:18:05;24.10;78.50
7516;DHT22;3799;47.184;8.538;2023-07-20T07:20:33;24.20;78.00
7516;DHT22;3799;47.184;8.538;2023-07-20T07:23:00;24.20;76.20
7516;DHT22;3799;47.184;8.538;2023-07-20T07:25:28;24.30;77.20
7516;DHT22;3799;47.184;8.538;2023-07-20T07:27:59;24.40;77.20
7516;DHT22;3799;47.184;8.538;2023-07-20T07:30:26;24.50;76.40
7516;DHT22;3799;47.184;8.538;2023-07-20T07:32:53;24.70;75.20
7516;DHT22;3799;47.184;8.538;2023-07-20T07:35:21;24.80;72.90
7516;DHT22;3799;47.184;8.538;2023-07-20T07:37:48;25.00;70.70
7516;DHT22;3799;47.184;8.538;2023-07-20T07:40:32;25.10;69.50
7516;DHT22;3799;47.184;8.538;2023-07-20T07:43:00;25.20;65.20
7516;DHT22;3799;47.184;8.538;2023-07-20T07:45:27;25.30;63.40
7516;DHT22;3799;47.184;8.538;2023-07-20T07:47:56;25.30;61.90
7516;DHT22;3799;47.184;8.538;2023-07-20T07:50:23;25.20;60.90
7516;DHT22;3799;47.184;8.538;2023-07-20T07:52:56;25.20;60.60
7516;DHT22;3799;47.184;8.538;2023-07-20T07:55:26;25.20;62.30
7516;DHT22;3799;47.184;8.538;2023-07-20T07:57:53;25.30;63.00
7516;DHT22;3799;47.184;8.538;2023-07-20T08:00:21;25.20;63.70
7516;DHT22;3799;47.184;8.538;2023-07-20T08:02:50;25.30;63.40
7516;DHT22;3799;47.184;8.538;2023-07-20T08:05:20;25.40;61.90
7516;DHT22;3799;47.184;8.538;2023-07-20T08:07:48;25.40;61.60
7516;DHT22;3799;47.184;8.538;2023-07-20T08:10:25;25.40;61.20
7516;DHT22;3799;47.184;8.538;2023-07-20T08:12:55;25.40;62.60
7516;DHT22;3799;47.184;8.538;2023-07-20T08:15:25;25.50;62.00
7516;DHT22;3799;47.184;8.538;2023-07-20T08:17:53;25.60;60.10
7516;DHT22;3799;47.184;8.538;2023-07-20T08:20:21;25.60;59.90
7516;DHT22;3799;47.184;8.538;2023-07-20T08:22:56;25.60;59.60
7516;DHT22;3799;47.184;8.538;2023-07-20T08:25:25;25.60;59.60
7516;DHT22;3799;47.184;8.538;2023-07-20T08:27:53;25.50;59.30
7516;DHT22;3799;47.184;8.538;2023-07-20T08:30:22;25.50;59.00
7516;DHT22;3799;47.184;8.538;2023-07-20T08:32:50;25.40;58.80
7516;DHT22;3799;47.184;8.538;2023-07-20T08:35:18;25.40;58.70
7516;DHT22;3799;47.184;8.538;2023-07-20T08:37:48;25.30;58.20
7516;DHT22;3799;47.184;8.538;2023-07-20T08:40:16;25.20;58.30
7516;DHT22;3799;47.184;8.538;2023-07-20T08:42:51;25.20;59.00
7516;DHT22;3799;47.184;8.538;2023-07-20T08:45:20;25.20;59.20
7516;DHT22;3799;47.184;8.538;2023-07-20T08:47:52;25.20;59.30
7516;DHT22;3799;47.184;8.538;2023-07-20T08:50:26;25.30;58.50
7516;DHT22;3799;47.184;8.538;2023-07-20T08:52:58;25.40;58.30
7516;DHT22;3799;47.184;8.538;2023-07-20T08:55:35;25.60;58.40
7516;DHT22;3799;47.184;8.538;2023-07-20T08:58:16;25.70;57.50
7516;DHT22;3799;47.184;8.538;2023-07-20T09:00:44;25.70;57.90
7516;DHT22;3799;47.184;8.538;2023-07-20T09:03:14;25.80;58.20
7516;DHT22;3799;47.184;8.538;2023-07-20T09:05:42;25.90;57.80
7516;DHT22;3799;47.184;8.538;2023-07-20T09:08:09;26.00;57.60
7516;DHT22;3799;47.184;8.538;2023-07-20T09:10:37;26.10;57.50
7516;DHT22;3799;47.184;8.538;2023-07-20T09:13:04;26.20;57.30
7516;DHT22;3799;47.184;8.538;2023-07-20T09:15:36;26.20;57.10
7516;DHT22;3799;47.184;8.538;2023-07-20T09:18:28;26.30;56.40
7516;DHT22;3799;47.184;8.538;2023-07-20T09:21:03;26.20;56.50
7516;DHT22;3799;47.184;8.538;2023-07-20T09:23:36;26.20;56.30
7516;DHT22;3799;47.184;8.538;2023-07-20T09:26:11;26.20;55.10
7516;DHT22;3799;47.184;8.538;2023-07-20T09:28:43;26.10;54.70
7516;DHT22;3799;47.184;8.538;2023-07-20T09:31:22;26.10;54.80
7516;DHT22;3799;47.184;8.538;2023-07-20T09:33:52;26.10;55.20
7516;DHT22;3799;47.184;8.538;2023-07-20T09:36:23;26.10;55.40
7516;DHT22;3799;47.184;8.538;2023-07-20T09:39:11;26.20;55.90
7516;DHT22;3799;47.184;8.538;2023-07-20T09:42:00;26.40;55.90
7516;DHT22;3799;47.184;8.538;2023-07-20T09:44:31;26.60;55.80
7516;DHT22;3799;47.184;8.538;2023-07-20T09:47:03;26.70;56.20
7516;DHT22;3799;47.184;8.538;2023-07-20T09:49:31;26.70;55.90
7516;DHT22;3799;47.184;8.538;2023-07-20T09:52:20;26.90;55.30
7516;DHT22;3799;47.184;8.538;2023-07-20T09:54:51;27.00;55.10
7516;DHT22;3799;47.184;8.538;2023-07-20T09:57:21;27.10;53.90
7516;DHT22;3799;47.184;8.538;2023-07-20T09:59:50;27.10;53.70
7516;DHT22;3799;47.184;8.538;2023-07-20T10:02:25;27.10;53.70
7516;DHT22;3799;47.184;8.538;2023-07-20T10:05:02;27.10;53.90
7516;DHT22;3799;47.184;8.538;2023-07-20T10:07:43;27.20;54.40
7516;DHT22;3799;47.184;8.538;2023-07-20T10:10:11;27.40;54.20
7516;DHT22;3799;47.184;8.538;2023-07-20T10:12:44;27.50;54.00
7516;DHT22;3799;47.184;8.538;2023-07-20T10:15:43;27.70;52.90
7516;DHT22;3799;47.184;8.538;2023-07-20T10:21:10;27.80;52.70
7516;DHT22;3799;47.184;8.538;2023-07-20T10:23:41;27.90;52.60
7516;DHT22;3799;47.184;8.538;2023-07-20T10:26:09;27.90;52.80
7516;DHT22;3799;47.184;8.538;2023-07-20T10:28:38;28.00;52.60
7516;DHT22;3799;47.184;8.538;2023-07-20T10:31:11;28.20;51.90
7516;DHT22;3799;47.184;8.538;2023-07-20T10:33:43;28.30;51.40
7516;DHT22;3799;47.184;8.538;2023-07-20T10:36:11;28.30;51.40
7516;DHT22;3799;47.184;8.538;2023-07-20T10:41:20;28.30;50.90
7516;DHT22;3799;47.184;8.538;2023-07-20T10:43:48;28.30;50.60
7516;DHT22;3799;47.184;8.538;2023-07-20T10:49:08;28.50;50.20
7516;DHT22;3799;47.184;8.538;2023-07-20T10:51:41;28.60;49.80
7516;DHT22;3799;47.184;8.538;2023-07-20T10:56:58;28.70;49.50
7516;DHT22;3799;47.184;8.538;2023-07-20T10:59:47;28.80;50.50
7516;DHT22;3799;47.184;8.538;2023-07-20T11:02:21;28.90;50.40
7516;DHT22;3799;47.184;8.538;2023-07-20T11:04:51;29.00;49.50
7516;DHT22;3799;47.184;8.538;2023-07-20T11:07:36;29.10;48.90
7516;DHT22;3799;47.184;8.538;2023-07-20T11:10:15;29.30;49.20
7516;DHT22;3799;47.184;8.538;2023-07-20T11:13:20;29.40;48.50
7516;DHT22;3799;47.184;8.538;2023-07-20T11:16:00;29.50;48.30
7516;DHT22;3799;47.184;8.538;2023-07-20T11:18:28;29.50;48.10
7516;DHT22;3799;47.184;8.538;2023-07-20T11:20:58;29.50;48.10
7516;DHT22;3799;47.184;8.538;2023-07-20T11:23:26;29.50;47.60
7516;DHT22;3799;47.184;8.538;2023-07-20T11:25:57;29.50;47.60
7516;DHT22;3799;47.184;8.538;2023-07-20T11:28:34;29.50;47.30
7516;DHT22;3799;47.184;8.538;2023-07-20T11:31:07;29.20;47.20
7516;DHT22;3799;47.184;8.538;2023-07-20T11:33:35;28.70;47.90
7516;DHT22;3799;47.184;8.538;2023-07-20T11:36:02;28.60;48.30
7516;DHT22;3799;47.184;8.538;2023-07-20T11:38:49;28.60;48.30
7516;DHT22;3799;47.184;8.538;2023-07-20T11:41:19;28.90;48.30
7516;DHT22;3799;47.184;8.538;2023-07-20T11:43:47;29.10;47.60
7516;DHT22;3799;47.184;8.538;2023-07-20T11:46:15;29.40;47.20
7516;DHT22;3799;47.184;8.538;2023-07-20T11:48:43;29.50;47.50
7516;DHT22;3799;47.184;8.538;2023-07-20T11:51:15;29.70;47.70
7516;DHT22;3799;47.184;8.538;2023-07-20T11:53:44;29.90;47.00
7516;DHT22;3799;47.184;8.538;2023-07-20T11:56:13;30.10;47.00
7516;DHT22;3799;47.184;8.538;2023-07-20T11:58:44;30.20;47.00
7516;DHT22;3799;47.184;8.538;2023-07-20T12:01:15;30.30;47.00
7516;DHT22;3799;47.184;8.538;2023-07-20T12:03:44;30.30;46.40
7516;DHT22;3799;47.184;8.538;2023-07-20T12:06:13;30.50;45.90
7516;DHT22;3799;47.184;8.538;2023-07-20T12:08:44;30.50;45.30
7516;DHT22;3799;47.184;8.538;2023-07-20T12:11:11;30.60;45.20
7516;DHT22;3799;47.184;8.538;2023-07-20T12:13:43;30.80;45.30
7516;DHT22;3799;47.184;8.538;2023-07-20T12:16:15;30.60;45.60
7516;DHT22;3799;47.184;8.538;2023-07-20T12:18:45;30.30;46.60
7516;DHT22;3799;47.184;8.538;2023-07-20T12:21:12;29.80;46.40
7516;DHT22;3799;47.184;8.538;2023-07-20T12:23:41;29.30;47.10
7516;DHT22;3799;47.184;8.538;2023-07-20T12:26:13;29.10;48.40
7516;DHT22;3799;47.184;8.538;2023-07-20T12:28:42;29.00;48.90
7516;DHT22;3799;47.184;8.538;2023-07-20T12:31:09;29.00;49.20
7516;DHT22;3799;47.184;8.538;2023-07-20T12:33:41;29.30;48.80
7516;DHT22;3799;47.184;8.538;2023-07-20T12:36:18;29.60;47.30
7516;DHT22;3799;47.184;8.538;2023-07-20T12:38:48;29.90;46.60
7516;DHT22;3799;47.184;8.538;2023-07-20T12:41:19;30.20;46.30
7516;DHT22;3799;47.184;8.538;2023-07-20T12:44:03;30.40;45.60
7516;DHT22;3799;47.184;8.538;2023-07-20T12:46:31;30.50;45.10
7516;DHT22;3799;47.184;8.538;2023-07-20T12:49:02;30.70;45.20
7516;DHT22;3799;47.184;8.538;2023-07-20T12:51:29;30.70;45.20
7516;DHT22;3799;47.184;8.538;2023-07-20T12:53:56;30.80;45.60
7516;DHT22;3799;47.184;8.538;2023-07-20T12:56:24;31.00;46.20
7516;DHT22;3799;47.184;8.538;2023-07-20T12:58:54;31.20;45.90
7516;DHT22;3799;47.184;8.538;2023-07-20T13:01:21;31.30;45.00
7516;DHT22;3799;47.184;8.538;2023-07-20T13:03:49;31.50;44.80
7516;DHT22;3799;47.184;8.538;2023-07-20T13:06:20;31.50;44.40
7516;DHT22;3799;47.184;8.538;2023-07-20T13:08:52;31.70;43.90
7516;DHT22;3799;47.184;8.538;2023-07-20T13:11:23;31.90;43.60
7516;DHT22;3799;47.184;8.538;2023-07-20T13:13:51;32.00;43.10
7516;DHT22;3799;47.184;8.538;2023-07-20T13:16:18;31.70;43.30
7516;DHT22;3799;47.184;8.538;2023-07-20T13:18:46;31.50;44.10
7516;DHT22;3799;47.184;8.538;2023-07-20T13:21:14;31.60;44.40
7516;DHT22;3799;47.184;8.538;2023-07-20T13:23:41;31.70;44.30
7516;DHT22;3799;47.184;8.538;2023-07-20T13:26:12;31.90;44.70
7516;DHT22;3799;47.184;8.538;2023-07-20T13:28:43;32.20;44.80
7516;DHT22;3799;47.184;8.538;2023-07-20T13:31:11;32.30;44.20
7516;DHT22;3799;47.184;8.538;2023-07-20T13:33:41;32.30;44.20
7516;DHT22;3799;47.184;8.538;2023-07-20T13:36:08;32.00;43.70
7516;DHT22;3799;47.184;8.538;2023-07-20T13:38:39;31.60;44.00
7516;DHT22;3799;47.184;8.538;2023-07-20T13:41:07;31.10;44.30
7516;DHT22;3799;47.184;8.538;2023-07-20T13:43:34;31.00;44.40
7516;DHT22;3799;47.184;8.538;2023-07-20T13:46:02;31.10;44.20
7516;DHT22;3799;47.184;8.538;2023-07-20T13:48:29;31.50;44.40
7516;DHT22;3799;47.184;8.538;2023-07-20T13:50:58;31.50;43.80
7516;DHT22;3799;47.184;8.538;2023-07-20T13:53:27;31.60;43.30
7516;DHT22;3799;47.184;8.538;2023-07-20T13:55:58;31.60;43.30
7516;DHT22;3799;47.184;8.538;2023-07-20T13:58:28;31.60;43.50
7516;DHT22;3799;47.184;8.538;2023-07-20T14:00:58;31.30;43.60
7516;DHT22;3799;47.184;8.538;2023-07-20T14:03:28;31.00;43.90
7516;DHT22;3799;47.184;8.538;2023-07-20T14:05:56;30.60;44.40
7516;DHT22;3799;47.184;8.538;2023-07-20T14:08:27;30.60;44.50
7516;DHT22;3799;47.184;8.538;2023-07-20T14:10:59;30.60;44.10
7516;DHT22;3799;47.184;8.538;2023-07-20T14:13:29;30.50;44.00
7516;DHT22;3799;47.184;8.538;2023-07-20T14:16:15;30.60;44.00
7516;DHT22;3799;47.184;8.538;2023-07-20T14:18:48;30.90;44.10
7516;DHT22;3799;47.184;8.538;2023-07-20T14:21:17;31.30;43.80
7516;DHT22;3799;47.184;8.538;2023-07-20T14:23:50;31.70;43.10
7516;DHT22;3799;47.184;8.538;2023-07-20T14:26:20;32.10;42.90
7516;DHT22;3799;47.184;8.538;2023-07-20T14:28:54;32.40;43.30
7516;DHT22;3799;47.184;8.538;2023-07-20T14:31:34;32.80;43.40
7516;DHT22;3799;47.184;8.538;2023-07-20T14:34:05;33.10;43.80
7516;DHT22;3799;47.184;8.538;2023-07-20T14:36:32;33.40;43.90
7516;DHT22;3799;47.184;8.538;2023-07-20T14:39:03;33.60;44.00
7516;DHT22;3799;47.184;8.538;2023-07-20T14:41:31;33.80;42.70
7516;DHT22;3799;47.184;8.538;2023-07-20T14:43:58;33.80;42.20
7516;DHT22;3799;47.184;8.538;2023-07-20T14:46:28;33.90;42.30
7516;DHT22;3799;47.184;8.538;2023-07-20T14:48:56;34.00;41.60
7516;DHT22;3799;47.184;8.538;2023-07-20T14:51:23;34.10;41.70
7516;DHT22;3799;47.184;8.538;2023-07-20T14:54:03;34.20;41.40
7516;DHT22;3799;47.184;8.538;2023-07-20T14:56:32;34.30;41.00
7516;DHT22;3799;47.184;8.538;2023-07-20T14:59:00;34.30;40.70
7516;DHT22;3799;47.184;8.538;2023-07-20T15:01:38;34.40;40.30
7516;DHT22;3799;47.184;8.538;2023-07-20T15:04:36;34.40;40.50
7516;DHT22;3799;47.184;8.538;2023-07-20T15:07:04;34.30;40.80
7516;DHT22;3799;47.184;8.538;2023-07-20T15:09:31;34.20;40.80
7516;DHT22;3799;47.184;8.538;2023-07-20T15:12:03;34.00;40.90
7516;DHT22;3799;47.184;8.538;2023-07-20T15:14:35;33.80;41.00
7516;DHT22;3799;47.184;8.538;2023-07-20T15:17:06;33.80;41.60
7516;DHT22;3799;47.184;8.538;2023-07-20T15:19:34;33.90;41.70
7516;DHT22;3799;47.184;8.538;2023-07-20T15:22:03;34.00;41.90
7516;DHT22;3799;47.184;8.538;2023-07-20T15:24:35;34.10;41.70
7516;DHT22;3799;47.184;8.538;2023-07-20T15:27:06;34.10;41.70
7516;DHT22;3799;47.184;8.538;2023-07-20T15:29:33;34.20;42.30
7516;DHT22;3799;47.184;8.538;2023-07-20T15:32:02;34.30;42.00
7516;DHT22;3799;47.184;8.538;2023-07-20T15:34:34;34.40;42.00
7516;DHT22;3799;47.184;8.538;2023-07-20T15:37:05;34.60;40.90
7516;DHT22;3799;47.184;8.538;2023-07-20T15:39:32;34.50;41.10
7516;DHT22;3799;47.184;8.538;2023-07-20T15:41:59;34.50;41.90
7516;DHT22;3799;47.184;8.538;2023-07-20T15:44:27;34.30;42.20
7516;DHT22;3799;47.184;8.538;2023-07-20T15:46:54;34.20;42.10
7516;DHT22;3799;47.184;8.538;2023-07-20T15:49:22;34.10;42.40
7516;DHT22;3799;47.184;8.538;2023-07-20T15:51:51;34.20;42.10
7516;DHT22;3799;47.184;8.538;2023-07-20T15:54:19;34.30;41.60
7516;DHT22;3799;47.184;8.538;2023-07-20T15:56:46;34.00;42.00
7516;DHT22;3799;47.184;8.538;2023-07-20T15:59:15;33.80;42.30
7516;DHT22;3799;47.184;8.538;2023-07-20T16:01:46;33.50;42.20
7516;DHT22;3799;47.184;8.538;2023-07-20T16:04:14;33.10;42.40
7516;DHT22;3799;47.184;8.538;2023-07-20T16:06:42;32.80;42.70
7516;DHT22;3799;47.184;8.538;2023-07-20T16:09:09;32.50;42.90
7516;DHT22;3799;47.184;8.538;2023-07-20T16:11:36;32.30;42.90
7516;DHT22;3799;47.184;8.538;2023-07-20T16:14:06;32.20;43.60
7516;DHT22;3799;47.184;8.538;2023-07-20T16:16:36;32.00;43.80
7516;DHT22;3799;47.184;8.538;2023-07-20T16:19:04;31.60;43.80
7516;DHT22;3799;47.184;8.538;2023-07-20T16:21:31;31.30;44.90
7516;DHT22;3799;47.184;8.538;2023-07-20T16:24:00;31.00;45.00
7516;DHT22;3799;47.184;8.538;2023-07-20T16:26:29;30.70;45.20
7516;DHT22;3799;47.184;8.538;2023-07-20T16:28:59;30.40;45.50
7516;DHT22;3799;47.184;8.538;2023-07-20T16:31:29;30.20;45.50
7516;DHT22;3799;47.184;8.538;2023-07-20T16:33:58;30.00;45.80
7516;DHT22;3799;47.184;8.538;2023-07-20T16:36:28;30.00;46.30
7516;DHT22;3799;47.184;8.538;2023-07-20T16:39:16;30.10;46.30